sensor_id;sensor_type;location;lat;lon;timestamp;P1;durP1;ratioP1;P2;durP2;ratioP2
10383;SDS011;5238;43.508;4.980;2023-01-08T00:01:15;14.60;;;8.55;;
10383;SDS011;5238;43.508;4.980;2023-01-08T00:58:42;13.57;;;6.43;;
10383;SDS011;5238;43.508;4.980;2023-01-08T01:14:21;15.98;;;14.48;;
10383;SDS011;5238;43.508;4.980;2023-01-08T01:54:38;12.07;;;5.47;;
10383;SDS011;5238;43.508;4.980;2023-01-08T05:01:21;16.73;;;5.43;;
10383;SDS011;5238;43.508;4.980;2023-01-08T06:09:41;23.83;;;7.45;;
10383;SDS011;5238;43.508;4.980;2023-01-08T06:33:00;15.50;;;6.35;;
10383;SDS011;5238;43.508;4.980;2023-01-08T09:11:07;13.85;;;6.10;;
10383;SDS011;5238;43.508;4.980;2023-01-08T09:16:17;18.17;;;6.18;;
10383;SDS011;5238;43.508;4.980;2023-01-08T09:18:44;19.55;;;6.32;;
10383;SDS011;5238;43.508;4.980;2023-01-08T09:21:14;13.38;;;7.47;;
10383;SDS011;5238;43.508;4.980;2023-01-08T09:23:41;11.63;;;5.05;;
10383;SDS011;5238;43.508;4.980;2023-01-08T09:26:10;15.30;;;5.13;;
10383;SDS011;5238;43.508;4.980;2023-01-08T09:28:39;12.10;;;5.38;;
10383;SDS011;5238;43.508;4.980;2023-01-08T09:31:07;15.45;;;6.93;;
10383;SDS011;5238;43.508;4.980;2023-01-08T09:33:39;19.60;;;7.03;;
10383;SDS011;5238;43.508;4.980;2023-01-08T09:36:09;14.68;;;5.57;;
10383;SDS011;5238;43.508;4.980;2023-01-08T09:38:40;9.25;;;6.40;;
10383;SDS011;5238;43.508;4.980;2023-01-08T09:41:15;11.43;;;7.43;;
10383;SDS011;5238;43.508;4.980;2023-01-08T09:43:58;11.02;;;5.07;;
10383;SDS011;5238;43.508;4.980;2023-01-08T09:46:27;10.68;;;4.82;;
10383;SDS011;5238;43.508;4.980;2023-01-08T09:48:58;13.40;;;5.05;;
10383;SDS011;5238;43.508;4.980;2023-01-08T09:51:33;8.23;;;5.85;;
10383;SDS011;5238;43.508;4.980;2023-01-08T09:54:04;8.20;;;5.90;;
10383;SDS011;5238;43.508;4.980;2023-01-08T09:56:44;11.75;;;5.20;;
10383;SDS011;5238;43.508;4.980;2023-01-08T09:59:17;7.93;;;4.90;;
10383;SDS011;5238;43.508;4.980;2023-01-08T10:01:45;11.55;;;5.75;;
10383;SDS011;5238;43.508;4.980;2023-01-08T10:04:17;12.05;;;5.07;;
10383;SDS011;5238;43.508;4.980;2023-01-08T10:06:48;7.80;;;4.70;;
10383;SDS011;5238;43.508;4.980;2023-01-08T10:09:20;10.77;;;4.95;;
10383;SDS011;5238;43.508;4.980;2023-01-08T10:11:57;9.02;;;4.20;;
10383;SDS011;5238;43.508;4.980;2023-01-08T10:14:37;7.88;;;3.47;;
10383;SDS011;5238;43.508;4.980;2023-01-08T10:17:14;4.38;;;3.65;;
10383;SDS011;5238;43.508;4.980;2023-01-08T10:19:48;7.28;;;3.63;;
10383;SDS011;5238;43.508;4.980;2023-01-08T10:22:16;6.65;;;3.63;;
10383;SDS011;5238;43.508;4.980;2023-01-08T10:24:46;4.93;;;4.53;;
10383;SDS011;5238;43.508;4.980;2023-01-08T10:27:17;6.63;;;3.30;;
10383;SDS011;5238;43.508;4.980;2023-01-08T10:29:46;5.88;;;3.65;;
10383;SDS011;5238;43.508;4.980;2023-01-08T10:32:16;5.70;;;3.70;;
10383;SDS011;5238;43.508;4.980;2023-01-08T10:34:46;6.25;;;4.32;;
10383;SDS011;5238;43.508;4.980;2023-01-08T10:37:16;8.65;;;7.43;;
10383;SDS011;5238;43.508;4.980;2023-01-08T10:39:51;7.35;;;4.10;;
10383;SDS011;5238;43.508;4.980;2023-01-08T10:42:22;5.78;;;3.92;;
10383;SDS011;5238;43.508;4.980;2023-01-08T10:44:55;4.78;;;4.05;;
10383;SDS011;5238;43.508;4.980;2023-01-08T10:47:26;5.53;;;3.63;;
10383;SDS011;5238;43.508;4.980;2023-01-08T10:49:57;5.00;;;3.78;;
10383;SDS011;5238;43.508;4.980;2023-01-08T10:52:27;5.60;;;4.03;;
10383;SDS011;5238;43.508;4.980;2023-01-08T10:54:57;5.20;;;4.22;;
10383;SDS011;5238;43.508;4.980;2023-01-08T10:57:39;6.90;;;4.15;;
10383;SDS011;5238;43.508;4.980;2023-01-08T11:00:21;7.05;;;4.07;;
10383;SDS011;5238;43.508;4.980;2023-01-08T11:02:49;6.97;;;4.10;;
10383;SDS011;5238;43.508;4.980;2023-01-08T11:05:17;4.53;;;3.95;;
10383;SDS011;5238;43.508;4.980;2023-01-08T11:07:47;9.73;;;3.95;;
10383;SDS011;5238;43.508;4.980;2023-01-08T11:13:50;4.25;;;3.83;;
10383;SDS011;5238;43.508;4.980;2023-01-08T11:16:29;6.63;;;4.95;;
10383;SDS011;5238;43.508;4.980;2023-01-08T11:18:57;6.30;;;4.70;;
10383;SDS011;5238;43.508;4.980;2023-01-08T11:21:25;4.93;;;4.10;;
10383;SDS011;5238;43.508;4.980;2023-01-08T11:24:01;7.22;;;4.63;;
10383;SDS011;5238;43.508;4.980;2023-01-08T11:26:36;4.60;;;3.80;;
10383;SDS011;5238;43.508;4.980;2023-01-08T11:29:13;6.32;;;4.05;;
10383;SDS011;5238;43.508;4.980;2023-01-08T11:31:44;7.68;;;4.80;;
10383;SDS011;5238;43.508;4.980;2023-01-08T11:34:17;4.40;;;3.80;;
10383;SDS011;5238;43.508;4.980;2023-01-08T11:36:53;6.55;;;5.93;;
10383;SDS011;5238;43.508;4.980;2023-01-08T11:39:25;6.53;;;4.93;;
10383;SDS011;5238;43.508;4.980;2023-01-08T11:42:08;4.75;;;3.80;;
10383;SDS011;5238;43.508;4.980;2023-01-08T11:44:50;6.20;;;3.20;;
10383;SDS011;5238;43.508;4.980;2023-01-08T11:47:37;7.50;;;4.00;;
10383;SDS011;5238;43.508;4.980;2023-01-08T11:50:25;5.78;;;3.70;;
10383;SDS011;5238;43.508;4.980;2023-01-08T11:53:04;6.07;;;4.40;;
10383;SDS011;5238;43.508;4.980;2023-01-08T11:55:41;7.53;;;3.97;;
10383;SDS011;5238;43.508;4.980;2023-01-08T11:58:17;10.07;;;4.82;;
10383;SDS011;5238;43.508;4.980;2023-01-08T12:00:54;6.80;;;4.78;;
10383;SDS011;5238;43.508;4.980;2023-01-08T12:03:31;8.20;;;4.75;;
10383;SDS011;5238;43.508;4.980;2023-01-08T12:06:03;10.25;;;4.60;;
10383;SDS011;5238;43.508;4.980;2023-01-08T12:08:39;9.15;;;5.55;;
10383;SDS011;5238;43.508;4.980;2023-01-08T12:11:19;8.20;;;4.82;;
10383;SDS011;5238;43.508;4.980;2023-01-08T12:13:57;9.40;;;5.35;;
10383;SDS011;5238;43.508;4.980;2023-01-08T12:16:51;13.02;;;5.63;;
10383;SDS011;5238;43.508;4.980;2023-01-08T12:19:32;8.35;;;5.60;;
10383;SDS011;5238;43.508;4.980;2023-01-08T12:22:16;6.72;;;4.63;;
10383;SDS011;5238;43.508;4.980;2023-01-08T12:25:05;11.43;;;5.60;;
10383;SDS011;5238;43.508;4.980;2023-01-08T12:27:53;6.45;;;4.38;;
10383;SDS011;5238;43.508;4.980;2023-01-08T12:30:33;6.78;;;4.68;;
10383;SDS011;5238;43.508;4.980;2023-01-08T12:33:12;7.53;;;5.97;;
10383;SDS011;5238;43.508;4.980;2023-01-08T12:35:44;8.57;;;4.78;;
10383;SDS011;5238;43.508;4.980;2023-01-08T12:38:17;4.57;;;4.18;;
10383;SDS011;5238;43.508;4.980;2023-01-08T12:40:52;10.43;;;8.00;;
10383;SDS011;5238;43.508;4.980;2023-01-08T12:43:23;6.78;;;4.93;;
10383;SDS011;5238;43.508;4.980;2023-01-08T12:45:55;14.93;;;10.60;;
10383;SDS011;5238;43.508;4.980;2023-01-08T12:51:32;10.40;;;5.22;;
10383;SDS011;5238;43.508;4.980;2023-01-08T12:54:06;7.82;;;5.63;;
10383;SDS011;5238;43.508;4.980;2023-01-08T12:56:40;7.65;;;6.53;;
10383;SDS011;5238;43.508;4.980;2023-01-08T13:19:38;8.38;;;7.50;;
10383;SDS011;5238;43.508;4.980;2023-01-08T14:20:47;8.10;;;7.38;;
10383;SDS011;5238;43.508;4.980;2023-01-08T14:50:14;6.55;;;5.10;;
10383;SDS011;5238;43.508;4.980;2023-01-08T14:52:47;8.02;;;5.25;;
10383;SDS011;5238;43.508;4.980;2023-01-08T14:55:16;9.02;;;7.25;;
10383;SDS011;5238;43.508;4.980;2023-01-08T14:57:50;7.07;;;4.97;;
10383;SDS011;5238;43.508;4.980;2023-01-08T15:00:26;10.73;;;6.35;;
10383;SDS011;5238;43.508;4.980;2023-01-08T15:03:19;10.90;;;9.23;;
10383;SDS011;5238;43.508;4.980;2023-01-08T15:06:05;15.45;;;14.07;;
10383;SDS011;5238;43.508;4.980;2023-01-08T15:18:14;11.68;;;8.05;;
10383;SDS011;5238;43.508;4.980;2023-01-08T15:43:54;11.57;;;8.00;;
10383;SDS011;5238;43.508;4.980;2023-01-08T16:06:19;43.28;;;16.52;;
10383;SDS011;5238;43.508;4.980;2023-01-08T16:15:52;17.90;;;12.48;;
10383;SDS011;5238;43.508;4.980;2023-01-08T16:45:14;18.02;;;10.05;;
10383;SDS011;5238;43.508;4.980;2023-01-08T17:22:00;18.92;;;10.38;;
10383;SDS011;5238;43.508;4.980;2023-01-08T18:04:36;18.05;;;8.63;;
10383;SDS011;5238;43.508;4.980;2023-01-08T18:10:36;29.48;;;12.02;;
10383;SDS011;5238;43.508;4.980;2023-01-08T18:16:46;28.13;;;20.40;;
10383;SDS011;5238;43.508;4.980;2023-01-08T18:22:35;22.73;;;14.45;;
10383;SDS011;5238;43.508;4.980;2023-01-08T18:27:57;27.52;;;15.38;;
10383;SDS011;5238;43.508;4.980;2023-01-08T18:30:28;28.48;;;18.52;;
10383;SDS011;5238;43.508;4.980;2023-01-08T18:36:00;25.33;;;15.88;;
10383;SDS011;5238;43.508;4.980;2023-01-08T18:41:25;25.02;;;16.05;;
10383;SDS011;5238;43.508;4.980;2023-01-08T18:44:09;27.88;;;16.15;;
10383;SDS011;5238;43.508;4.980;2023-01-08T18:46:36;28.15;;;20.25;;
10383;SDS011;5238;43.508;4.980;2023-01-08T18:49:13;29.98;;;18.23;;
10383;SDS011;5238;43.508;4.980;2023-01-08T18:51:47;36.42;;;22.25;;
10383;SDS011;5238;43.508;4.980;2023-01-08T18:54:14;35.60;;;22.75;;
10383;SDS011;5238;43.508;4.980;2023-01-08T18:56:48;33.65;;;23.33;;
10383;SDS011;5238;43.508;4.980;2023-01-08T19:02:16;38.90;;;24.75;;
10383;SDS011;5238;43.508;4.980;2023-01-08T19:04:46;44.38;;;28.35;;
10383;SDS011;5238;43.508;4.980;2023-01-08T19:07:17;41.10;;;32.35;;
10383;SDS011;5238;43.508;4.980;2023-01-08T19:10:08;45.95;;;28.90;;
10383;SDS011;5238;43.508;4.980;2023-01-08T19:12:38;48.35;;;32.88;;
10383;SDS011;5238;43.508;4.980;2023-01-08T19:21:05;48.45;;;36.30;;
10383;SDS011;5238;43.508;4.980;2023-01-08T19:46:20;48.38;;;32.88;;
10383;SDS011;5238;43.508;4.980;2023-01-08T19:49:19;41.75;;;28.85;;
10383;SDS011;5238;43.508;4.980;2023-01-08T20:09:03;52.40;;;35.33;;
10383;SDS011;5238;43.508;4.980;2023-01-08T20:54:37;44.47;;;33.40;;
10383;SDS011;5238;43.508;4.980;2023-01-08T20:57:17;40.45;;;28.88;;
10383;SDS011;5238;43.508;4.980;2023-01-08T20:59:46;42.30;;;27.95;;
10383;SDS011;5238;43.508;4.980;2023-01-08T21:02:19;43.20;;;29.25;;
10383;SDS011;5238;43.508;4.980;2023-01-08T21:04:50;45.88;;;30.15;;
10383;SDS011;5238;43.508;4.980;2023-01-08T21:07:19;44.72;;;29.75;;
10383;SDS011;5238;43.508;4.980;2023-01-08T21:09:46;44.25;;;30.20;;
10383;SDS011;5238;43.508;4.980;2023-01-08T21:12:13;43.45;;;30.95;;
10383;SDS011;5238;43.508;4.980;2023-01-08T21:15:03;39.78;;;28.23;;
10383;SDS011;5238;43.508;4.980;2023-01-08T21:18:20;39.65;;;25.65;;
10383;SDS011;5238;43.508;4.980;2023-01-08T21:21:03;33.08;;;26.42;;
10383;SDS011;5238;43.508;4.980;2023-01-08T21:30:21;46.05;;;41.03;;
10383;SDS011;5238;43.508;4.980;2023-01-08T21:33:10;37.03;;;25.92;;
10383;SDS011;5238;43.508;4.980;2023-01-08T21:35:38;45.50;;;31.60;;
10383;SDS011;5238;43.508;4.980;2023-01-08T21:38:06;38.05;;;25.58;;
10383;SDS011;5238;43.508;4.980;2023-01-08T21:40:37;36.30;;;25.38;;
10383;SDS011;5238;43.508;4.980;2023-01-08T21:43:16;29.75;;;21.90;;
10383;SDS011;5238;43.508;4.980;2023-01-08T21:46:06;29.00;;;20.00;;
10383;SDS011;5238;43.508;4.980;2023-01-08T21:48:36;38.83;;;24.20;;
10383;SDS011;5238;43.508;4.980;2023-01-08T21:54:45;31.50;;;20.95;;
10383;SDS011;5238;43.508;4.980;2023-01-08T21:57:12;34.65;;;20.63;;
10383;SDS011;5238;43.508;4.980;2023-01-08T21:59:41;27.85;;;19.60;;
10383;SDS011;5238;43.508;4.980;2023-01-08T22:02:10;31.13;;;22.05;;
10383;SDS011;5238;43.508;4.980;2023-01-08T22:04:43;28.45;;;17.75;;
10383;SDS011;5238;43.508;4.980;2023-01-08T22:07:11;23.38;;;17.05;;
10383;SDS011;5238;43.508;4.980;2023-01-08T22:09:41;23.88;;;16.80;;
10383;SDS011;5238;43.508;4.980;2023-01-08T22:12:08;25.85;;;18.85;;
10383;SDS011;5238;43.508;4.980;2023-01-08T22:14:35;31.25;;;20.00;;
10383;SDS011;5238;43.508;4.980;2023-01-08T22:17:04;26.10;;;18.33;;
10383;SDS011;5238;43.508;4.980;2023-01-08T22:19:32;22.55;;;15.68;;
10383;SDS011;5238;43.508;4.980;2023-01-08T22:21:59;24.40;;;15.00;;
10383;SDS011;5238;43.508;4.980;2023-01-08T22:24:26;21.85;;;14.10;;
10383;SDS011;5238;43.508;4.980;2023-01-08T22:26:55;19.50;;;13.23;;
10383;SDS011;5238;43.508;4.980;2023-01-08T22:29:22;24.17;;;14.05;;
10383;SDS011;5238;43.508;4.980;2023-01-08T22:31:49;19.17;;;14.00;;
10383;SDS011;5238;43.508;4.980;2023-01-08T22:34:16;21.55;;;14.57;;
10383;SDS011;5238;43.508;4.980;2023-01-08T22:36:43;17.60;;;13.23;;
10383;SDS011;5238;43.508;4.980;2023-01-08T22:39:12;18.25;;;12.68;;
10383;SDS011;5238;43.508;4.980;2023-01-08T22:41:39;15.00;;;13.15;;
10383;SDS011;5238;43.508;4.980;2023-01-08T22:44:09;20.98;;;13.75;;
10383;SDS011;5238;43.508;4.980;2023-01-08T22:46:37;20.13;;;14.43;;
10383;SDS011;5238;43.508;4.980;2023-01-08T22:49:04;15.63;;;12.65;;
10383;SDS011;5238;43.508;4.980;2023-01-08T22:51:32;18.48;;;13.63;;
10383;SDS011;5238;43.508;4.980;2023-01-08T22:53:59;16.75;;;12.75;;
10383;SDS011;5238;43.508;4.980;2023-01-08T22:56:26;20.92;;;15.30;;
10383;SDS011;5238;43.508;4.980;2023-01-08T22:58:54;20.63;;;13.82;;
10383;SDS011;5238;43.508;4.980;2023-01-08T23:01:26;19.80;;;16.30;;
10383;SDS011;5238;43.508;4.980;2023-01-08T23:03:54;20.98;;;15.35;;
10383;SDS011;5238;43.508;4.980;2023-01-08T23:06:26;27.50;;;18.48;;
10383;SDS011;5238;43.508;4.980;2023-01-08T23:08:55;16.67;;;12.75;;
10383;SDS011;5238;43.508;4.980;2023-01-08T23:11:23;19.63;;;14.18;;
10383;SDS011;5238;43.508;4.980;2023-01-08T23:13:50;17.38;;;12.07;;
10383;SDS011;5238;43.508;4.980;2023-01-08T23:16:19;15.73;;;12.18;;
10383;SDS011;5238;43.508;4.980;2023-01-08T23:18:51;21.58;;;13.10;;
10383;SDS011;5238;43.508;4.980;2023-01-08T23:21:19;18.85;;;12.25;;
10383;SDS011;5238;43.508;4.980;2023-01-08T23:23:48;18.88;;;14.07;;
10383;SDS011;5238;43.508;4.980;2023-01-08T23:26:16;15.43;;;10.95;;
10383;SDS011;5238;43.508;4.980;2023-01-08T23:28:44;20.10;;;12.63;;
10383;SDS011;5238;43.508;4.980;2023-01-08T23:31:14;20.73;;;12.80;;
10383;SDS011;5238;43.508;4.980;2023-01-08T23:33:43;21.05;;;10.98;;
10383;SDS011;5238;43.508;4.980;2023-01-08T23:36:12;22.60;;;11.88;;
10383;SDS011;5238;43.508;4.980;2023-01-08T23:38:42;18.42;;;11.43;;
10383;SDS011;5238;43.508;4.980;2023-01-08T23:41:13;23.80;;;12.00;;
10383;SDS011;5238;43.508;4.980;2023-01-08T23:43:40;18.63;;;9.68;;
10383;SDS011;5238;43.508;4.980;2023-01-08T23:46:11;16.63;;;9.60;;
10383;SDS011;5238;43.508;4.980;2023-01-08T23:48:38;22.08;;;10.75;;
10383;SDS011;5238;43.508;4.980;2023-01-08T23:51:05;19.77;;;10.65;;
10383;SDS011;5238;43.508;4.980;2023-01-08T23:53:33;16.85;;;9.68;;
10383;SDS011;5238;43.508;4.980;2023-01-08T23:56:01;16.95;;;8.95;;
10383;SDS011;5238;43.508;4.980;2023-01-08T23:58:28;16.23;;;9.05;;
